sensor_id;sensor_type;location;lat;lon;timestamp;temperature;humidity
18085;DHT22;9169;44.492;11.372;2022-08-21T00:00:17;29.70;36.60
18085;DHT22;9169;44.492;11.372;2022-08-21T00:02:46;29.60;36.40
18085;DHT22;9169;44.492;11.372;2022-08-21T00:05:13;29.60;36.40
18085;DHT22;9169;44.492;11.372;2022-08-21T00:07:40;29.60;36.40
18085;DHT22;9169;44.492;11.372;2022-08-21T00:10:07;29.60;36.40
18085;DHT22;9169;44.492;11.372;2022-08-21T00:12:34;29.60;36.70
18085;DHT22;9169;44.492;11.372;2022-08-21T00:15:01;29.50;36.90
18085;DHT22;9169;44.492;11.372;2022-08-21T00:17:28;29.50;36.70
18085;DHT22;9169;44.492;11.372;2022-08-21T00:19:56;29.50;36.70
18085;DHT22;9169;44.492;11.372;2022-08-21T00:22:23;29.40;36.60
18085;DHT22;9169;44.492;11.372;2022-08-21T00:24:49;29.40;36.70
18085;DHT22;9169;44.492;11.372;2022-08-21T00:27:16;29.40;36.70
18085;DHT22;9169;44.492;11.372;2022-08-21T00:29:43;29.40;37.10
18085;DHT22;9169;44.492;11.372;2022-08-21T00:32:10;29.40;37.10
18085;DHT22;9169;44.492;11.372;2022-08-21T00:34:36;29.30;37.00
18085;DHT22;9169;44.492;11.372;2022-08-21T00:37:05;29.30;36.90
18085;DHT22;9169;44.492;11.372;2022-08-21T00:39:33;29.30;37.30
18085;DHT22;9169;44.492;11.372;2022-08-21T00:41:59;29.30;37.00
18085;DHT22;9169;44.492;11.372;2022-08-21T00:44:26;29.30;36.90
18085;DHT22;9169;44.492;11.372;2022-08-21T00:46:53;29.30;37.40
18085;DHT22;9169;44.492;11.372;2022-08-21T00:49:20;29.20;37.20
18085;DHT22;9169;44.492;11.372;2022-08-21T00:51:47;29.20;37.10
18085;DHT22;9169;44.492;11.372;2022-08-21T00:54:16;29.20;37.10
18085;DHT22;9169;44.492;11.372;2022-08-21T00:56:43;29.10;36.90
18085;DHT22;9169;44.492;11.372;2022-08-21T00:59:10;29.10;37.00
18085;DHT22;9169;44.492;11.372;2022-08-21T01:01:38;29.00;37.00
18085;DHT22;9169;44.492;11.372;2022-08-21T01:04:04;29.00;37.00
18085;DHT22;9169;44.492;11.372;2022-08-21T01:06:31;29.00;37.20
18085;DHT22;9169;44.492;11.372;2022-08-21T01:08:58;28.90;37.20
18085;DHT22;9169;44.492;11.372;2022-08-21T01:11:26;28.90;37.10
18085;DHT22;9169;44.492;11.372;2022-08-21T01:13:53;28.90;37.00
18085;DHT22;9169;44.492;11.372;2022-08-21T01:16:20;28.90;36.90
18085;DHT22;9169;44.492;11.372;2022-08-21T01:18:48;28.90;37.30
18085;DHT22;9169;44.492;11.372;2022-08-21T01:21:18;28.80;37.60
18085;DHT22;9169;44.492;11.372;2022-08-21T01:23:46;28.80;37.30
18085;DHT22;9169;44.492;11.372;2022-08-21T01:26:14;28.80;37.30
18085;DHT22;9169;44.492;11.372;2022-08-21T01:28:45;28.80;37.40
18085;DHT22;9169;44.492;11.372;2022-08-21T01:31:12;28.80;37.40
18085;DHT22;9169;44.492;11.372;2022-08-21T01:33:40;28.80;37.20
18085;DHT22;9169;44.492;11.372;2022-08-21T01:36:07;28.70;37.30
18085;DHT22;9169;44.492;11.372;2022-08-21T01:38:37;28.70;37.40
18085;DHT22;9169;44.492;11.372;2022-08-21T01:41:04;28.70;37.40
18085;DHT22;9169;44.492;11.372;2022-08-21T01:43:30;28.70;37.60
18085;DHT22;9169;44.492;11.372;2022-08-21T01:45:57;28.70;37.40
18085;DHT22;9169;44.492;11.372;2022-08-21T01:48:24;28.70;37.40
18085;DHT22;9169;44.492;11.372;2022-08-21T01:50:51;28.60;37.50
18085;DHT22;9169;44.492;11.372;2022-08-21T01:53:18;28.60;37.70
18085;DHT22;9169;44.492;11.372;2022-08-21T01:55:46;28.50;37.80
18085;DHT22;9169;44.492;11.372;2022-08-21T01:58:13;28.40;37.60
18085;DHT22;9169;44.492;11.372;2022-08-21T02:00:40;28.40;37.40
18085;DHT22;9169;44.492;11.372;2022-08-21T02:03:07;28.40;37.60
18085;DHT22;9169;44.492;11.372;2022-08-21T02:05:34;28.40;37.60
18085;DHT22;9169;44.492;11.372;2022-08-21T02:08:00;28.40;37.60
18085;DHT22;9169;44.492;11.372;2022-08-21T02:10:29;28.40;37.40
18085;DHT22;9169;44.492;11.372;2022-08-21T02:12:57;28.40;37.90
18085;DHT22;9169;44.492;11.372;2022-08-21T02:15:25;28.40;38.10
18085;DHT22;9169;44.492;11.372;2022-08-21T02:17:53;28.30;38.20
18085;DHT22;9169;44.492;11.372;2022-08-21T02:20:21;28.30;38.00
18085;DHT22;9169;44.492;11.372;2022-08-21T02:22:49;28.30;37.90
18085;DHT22;9169;44.492;11.372;2022-08-21T02:25:16;28.30;37.80
18085;DHT22;9169;44.492;11.372;2022-08-21T02:27:43;28.30;37.70
18085;DHT22;9169;44.492;11.372;2022-08-21T02:30:14;28.30;37.80
18085;DHT22;9169;44.492;11.372;2022-08-21T02:32:42;28.30;38.00
18085;DHT22;9169;44.492;11.372;2022-08-21T02:35:09;28.30;38.30
18085;DHT22;9169;44.492;11.372;2022-08-21T02:37:42;28.20;37.90
18085;DHT22;9169;44.492;11.372;2022-08-21T02:40:09;28.20;37.90
18085;DHT22;9169;44.492;11.372;2022-08-21T02:42:36;28.20;38.00
18085;DHT22;9169;44.492;11.372;2022-08-21T02:45:04;28.20;38.00
18085;DHT22;9169;44.492;11.372;2022-08-21T02:47:32;28.20;38.50
18085;DHT22;9169;44.492;11.372;2022-08-21T02:49:59;28.20;38.30
18085;DHT22;9169;44.492;11.372;2022-08-21T02:52:26;28.20;38.50
18085;DHT22;9169;44.492;11.372;2022-08-21T02:54:52;28.10;38.50
18085;DHT22;9169;44.492;11.372;2022-08-21T02:57:19;28.20;38.60
18085;DHT22;9169;44.492;11.372;2022-08-21T02:59:46;28.10;38.70
18085;DHT22;9169;44.492;11.372;2022-08-21T03:02:12;28.10;38.30
18085;DHT22;9169;44.492;11.372;2022-08-21T03:04:41;28.10;38.30
18085;DHT22;9169;44.492;11.372;2022-08-21T03:07:08;28.10;38.10
18085;DHT22;9169;44.492;11.372;2022-08-21T03:09:34;28.10;38.00
18085;DHT22;9169;44.492;11.372;2022-08-21T03:12:01;28.00;37.90
18085;DHT22;9169;44.492;11.372;2022-08-21T03:14:28;28.00;37.90
18085;DHT22;9169;44.492;11.372;2022-08-21T03:16:55;28.00;38.00
18085;DHT22;9169;44.492;11.372;2022-08-21T03:19:22;28.00;37.90
18085;DHT22;9169;44.492;11.372;2022-08-21T03:21:50;28.00;37.90
18085;DHT22;9169;44.492;11.372;2022-08-21T03:24:17;28.00;37.80
18085;DHT22;9169;44.492;11.372;2022-08-21T03:26:43;28.00;37.80
18085;DHT22;9169;44.492;11.372;2022-08-21T03:29:10;28.00;37.70
18085;DHT22;9169;44.492;11.372;2022-08-21T03:31:37;28.00;37.60
18085;DHT22;9169;44.492;11.372;2022-08-21T03:34:04;28.00;37.60
18085;DHT22;9169;44.492;11.372;2022-08-21T03:36:30;28.00;37.80
18085;DHT22;9169;44.492;11.372;2022-08-21T03:38:58;27.90;37.90
18085;DHT22;9169;44.492;11.372;2022-08-21T03:41:25;27.90;38.00
18085;DHT22;9169;44.492;11.372;2022-08-21T03:43:52;27.70;38.00
18085;DHT22;9169;44.492;11.372;2022-08-21T03:46:19;27.70;38.00
18085;DHT22;9169;44.492;11.372;2022-08-21T03:48:45;27.70;38.10
18085;DHT22;9169;44.492;11.372;2022-08-21T03:51:12;27.70;38.60
18085;DHT22;9169;44.492;11.372;2022-08-21T03:53:39;27.60;38.00
18085;DHT22;9169;44.492;11.372;2022-08-21T03:56:07;27.60;38.10
18085;DHT22;9169;44.492;11.372;2022-08-21T03:58:34;27.60;38.00
18085;DHT22;9169;44.492;11.372;2022-08-21T04:01:02;27.60;38.00
18085;DHT22;9169;44.492;11.372;2022-08-21T04:03:29;27.60;37.90
18085;DHT22;9169;44.492;11.372;2022-08-21T04:05:56;27.50;38.30
18085;DHT22;9169;44.492;11.372;2022-08-21T04:08:23;27.50;38.30
18085;DHT22;9169;44.492;11.372;2022-08-21T04:10:51;27.40;38.20
18085;DHT22;9169;44.492;11.372;2022-08-21T04:13:19;27.40;38.50
18085;DHT22;9169;44.492;11.372;2022-08-21T04:15:46;27.40;38.50
18085;DHT22;9169;44.492;11.372;2022-08-21T04:18:13;27.40;38.50
18085;DHT22;9169;44.492;11.372;2022-08-21T04:20:40;27.40;38.70
18085;DHT22;9169;44.492;11.372;2022-08-21T04:23:08;27.30;38.70
18085;DHT22;9169;44.492;11.372;2022-08-21T04:25:35;27.30;38.90
18085;DHT22;9169;44.492;11.372;2022-08-21T04:28:02;27.30;38.70
18085;DHT22;9169;44.492;11.372;2022-08-21T04:30:30;27.30;38.50
18085;DHT22;9169;44.492;11.372;2022-08-21T04:32:57;27.30;38.50
18085;DHT22;9169;44.492;11.372;2022-08-21T04:35:25;27.30;38.80
18085;DHT22;9169;44.492;11.372;2022-08-21T04:37:52;27.30;39.10
18085;DHT22;9169;44.492;11.372;2022-08-21T04:40:19;27.30;38.70
18085;DHT22;9169;44.492;11.372;2022-08-21T04:42:47;27.30;39.10
18085;DHT22;9169;44.492;11.372;2022-08-21T04:45:18;27.40;38.50
18085;DHT22;9169;44.492;11.372;2022-08-21T04:47:48;27.40;38.40
18085;DHT22;9169;44.492;11.372;2022-08-21T04:50:15;27.40;38.40
18085;DHT22;9169;44.492;11.372;2022-08-21T04:52:41;27.10;38.70
18085;DHT22;9169;44.492;11.372;2022-08-21T04:55:09;27.40;39.00
18085;DHT22;9169;44.492;11.372;2022-08-21T04:57:36;27.40;39.30
18085;DHT22;9169;44.492;11.372;2022-08-21T05:00:04;27.40;39.00
18085;DHT22;9169;44.492;11.372;2022-08-21T05:02:32;27.40;38.80
18085;DHT22;9169;44.492;11.372;2022-08-21T05:05:00;27.40;38.50
18085;DHT22;9169;44.492;11.372;2022-08-21T05:07:28;27.40;38.60
18085;DHT22;9169;44.492;11.372;2022-08-21T05:09:56;27.40;38.80
18085;DHT22;9169;44.492;11.372;2022-08-21T05:12:23;27.40;38.80
18085;DHT22;9169;44.492;11.372;2022-08-21T05:14:50;27.40;38.80
18085;DHT22;9169;44.492;11.372;2022-08-21T05:17:17;27.40;38.70
18085;DHT22;9169;44.492;11.372;2022-08-21T05:19:44;27.40;38.90
18085;DHT22;9169;44.492;11.372;2022-08-21T05:22:18;27.40;38.90
18085;DHT22;9169;44.492;11.372;2022-08-21T05:24:44;27.40;38.80
18085;DHT22;9169;44.492;11.372;2022-08-21T05:27:11;27.40;38.70
18085;DHT22;9169;44.492;11.372;2022-08-21T05:29:38;27.40;38.60
18085;DHT22;9169;44.492;11.372;2022-08-21T05:32:07;27.40;38.70
18085;DHT22;9169;44.492;11.372;2022-08-21T05:34:34;27.50;38.80
18085;DHT22;9169;44.492;11.372;2022-08-21T05:37:01;27.50;38.70
18085;DHT22;9169;44.492;11.372;2022-08-21T05:39:29;27.50;38.60
18085;DHT22;9169;44.492;11.372;2022-08-21T05:41:56;27.60;38.70
18085;DHT22;9169;44.492;11.372;2022-08-21T05:44:23;27.60;38.60
18085;DHT22;9169;44.492;11.372;2022-08-21T05:46:49;27.60;38.50
18085;DHT22;9169;44.492;11.372;2022-08-21T05:49:16;27.70;38.50
18085;DHT22;9169;44.492;11.372;2022-08-21T05:51:43;27.70;38.90
18085;DHT22;9169;44.492;11.372;2022-08-21T05:54:10;27.80;38.40
18085;DHT22;9169;44.492;11.372;2022-08-21T05:56:38;27.80;38.50
18085;DHT22;9169;44.492;11.372;2022-08-21T05:59:04;27.90;38.50
18085;DHT22;9169;44.492;11.372;2022-08-21T06:01:31;28.00;38.40
18085;DHT22;9169;44.492;11.372;2022-08-21T06:03:58;28.10;38.50
18085;DHT22;9169;44.492;11.372;2022-08-21T06:06:25;28.10;38.40
18085;DHT22;9169;44.492;11.372;2022-08-21T06:08:51;28.20;38.30
18085;DHT22;9169;44.492;11.372;2022-08-21T06:11:19;28.30;38.30
18085;DHT22;9169;44.492;11.372;2022-08-21T06:13:47;28.30;38.30
18085;DHT22;9169;44.492;11.372;2022-08-21T06:16:14;28.40;38.20
18085;DHT22;9169;44.492;11.372;2022-08-21T06:18:41;28.40;38.10
18085;DHT22;9169;44.492;11.372;2022-08-21T06:21:09;28.50;38.10
18085;DHT22;9169;44.492;11.372;2022-08-21T06:23:36;28.60;38.10
18085;DHT22;9169;44.492;11.372;2022-08-21T06:26:04;28.60;38.00
18085;DHT22;9169;44.492;11.372;2022-08-21T06:28:31;28.70;38.00
18085;DHT22;9169;44.492;11.372;2022-08-21T06:30:59;28.70;38.00
18085;DHT22;9169;44.492;11.372;2022-08-21T06:33:26;28.80;37.90
18085;DHT22;9169;44.492;11.372;2022-08-21T06:35:53;28.80;38.00
18085;DHT22;9169;44.492;11.372;2022-08-21T06:38:19;28.80;38.00
18085;DHT22;9169;44.492;11.372;2022-08-21T06:40:46;28.80;38.20
18085;DHT22;9169;44.492;11.372;2022-08-21T06:43:14;28.80;38.00
18085;DHT22;9169;44.492;11.372;2022-08-21T06:45:41;28.80;38.00
18085;DHT22;9169;44.492;11.372;2022-08-21T06:48:09;28.90;38.00
18085;DHT22;9169;44.492;11.372;2022-08-21T06:50:36;29.00;38.00
18085;DHT22;9169;44.492;11.372;2022-08-21T06:53:06;29.00;37.90
18085;DHT22;9169;44.492;11.372;2022-08-21T06:55:33;29.10;37.90
18085;DHT22;9169;44.492;11.372;2022-08-21T06:58:00;29.10;37.90
18085;DHT22;9169;44.492;11.372;2022-08-21T07:00:27;29.20;37.80
18085;DHT22;9169;44.492;11.372;2022-08-21T07:02:53;29.20;37.70
18085;DHT22;9169;44.492;11.372;2022-08-21T07:05:24;29.30;37.80
18085;DHT22;9169;44.492;11.372;2022-08-21T07:07:51;29.30;37.70
18085;DHT22;9169;44.492;11.372;2022-08-21T07:10:18;29.40;37.90
18085;DHT22;9169;44.492;11.372;2022-08-21T07:12:45;29.30;37.70
18085;DHT22;9169;44.492;11.372;2022-08-21T07:15:11;29.50;37.70
18085;DHT22;9169;44.492;11.372;2022-08-21T07:17:38;29.50;37.60
18085;DHT22;9169;44.492;11.372;2022-08-21T07:20:05;29.50;37.50
18085;DHT22;9169;44.492;11.372;2022-08-21T07:22:34;29.60;37.50
18085;DHT22;9169;44.492;11.372;2022-08-21T07:25:01;29.60;37.40
18085;DHT22;9169;44.492;11.372;2022-08-21T07:27:29;29.60;37.40
18085;DHT22;9169;44.492;11.372;2022-08-21T07:29:56;29.70;37.30
18085;DHT22;9169;44.492;11.372;2022-08-21T07:32:22;29.70;37.30
18085;DHT22;9169;44.492;11.372;2022-08-21T07:34:49;29.70;37.30
18085;DHT22;9169;44.492;11.372;2022-08-21T07:37:16;29.80;37.30
18085;DHT22;9169;44.492;11.372;2022-08-21T07:39:44;29.80;37.20
18085;DHT22;9169;44.492;11.372;2022-08-21T07:42:14;29.80;37.20
18085;DHT22;9169;44.492;11.372;2022-08-21T07:44:40;29.90;37.20
18085;DHT22;9169;44.492;11.372;2022-08-21T07:47:07;29.90;37.20
18085;DHT22;9169;44.492;11.372;2022-08-21T07:49:34;29.90;37.20
18085;DHT22;9169;44.492;11.372;2022-08-21T07:52:01;30.00;37.20
18085;DHT22;9169;44.492;11.372;2022-08-21T07:54:28;30.00;37.10
18085;DHT22;9169;44.492;11.372;2022-08-21T07:56:56;30.00;37.10
18085;DHT22;9169;44.492;11.372;2022-08-21T07:59:22;30.00;37.20
18085;DHT22;9169;44.492;11.372;2022-08-21T08:01:49;30.10;37.20
18085;DHT22;9169;44.492;11.372;2022-08-21T08:04:16;30.10;37.10
18085;DHT22;9169;44.492;11.372;2022-08-21T08:06:43;30.20;37.20
18085;DHT22;9169;44.492;11.372;2022-08-21T08:09:09;30.20;37.10
18085;DHT22;9169;44.492;11.372;2022-08-21T08:11:36;30.20;37.20
18085;DHT22;9169;44.492;11.372;2022-08-21T08:14:06;30.20;37.10
18085;DHT22;9169;44.492;11.372;2022-08-21T08:16:33;30.20;37.10
18085;DHT22;9169;44.492;11.372;2022-08-21T08:19:00;30.20;37.10
18085;DHT22;9169;44.492;11.372;2022-08-21T08:21:28;30.20;37.10
18085;DHT22;9169;44.492;11.372;2022-08-21T08:23:54;30.30;37.20
18085;DHT22;9169;44.492;11.372;2022-08-21T08:26:21;30.30;37.20
18085;DHT22;9169;44.492;11.372;2022-08-21T08:28:48;30.30;37.20
18085;DHT22;9169;44.492;11.372;2022-08-21T08:31:16;30.30;37.20
18085;DHT22;9169;44.492;11.372;2022-08-21T08:33:43;30.30;37.20
18085;DHT22;9169;44.492;11.372;2022-08-21T08:36:14;30.40;37.20
18085;DHT22;9169;44.492;11.372;2022-08-21T08:38:41;30.40;37.10
18085;DHT22;9169;44.492;11.372;2022-08-21T08:41:10;30.40;37.10
18085;DHT22;9169;44.492;11.372;2022-08-21T08:43:38;30.50;37.10
18085;DHT22;9169;44.492;11.372;2022-08-21T08:46:09;30.50;37.10
18085;DHT22;9169;44.492;11.372;2022-08-21T08:48:41;30.50;37.00
18085;DHT22;9169;44.492;11.372;2022-08-21T08:51:12;30.60;37.10
18085;DHT22;9169;44.492;11.372;2022-08-21T08:53:43;30.60;37.10
18085;DHT22;9169;44.492;11.372;2022-08-21T08:56:12;30.60;37.00
18085;DHT22;9169;44.492;11.372;2022-08-21T08:58:40;30.70;37.00
18085;DHT22;9169;44.492;11.372;2022-08-21T09:01:10;30.80;37.00
18085;DHT22;9169;44.492;11.372;2022-08-21T09:03:42;30.80;36.80
18085;DHT22;9169;44.492;11.372;2022-08-21T09:06:11;30.90;36.70
18085;DHT22;9169;44.492;11.372;2022-08-21T09:08:43;31.00;36.60
18085;DHT22;9169;44.492;11.372;2022-08-21T09:11:16;31.10;36.50
18085;DHT22;9169;44.492;11.372;2022-08-21T09:13:48;31.20;36.60
18085;DHT22;9169;44.492;11.372;2022-08-21T09:16:18;31.30;36.60
18085;DHT22;9169;44.492;11.372;2022-08-21T09:18:52;31.30;36.60
18085;DHT22;9169;44.492;11.372;2022-08-21T09:21:22;31.30;36.40
18085;DHT22;9169;44.492;11.372;2022-08-21T09:23:52;31.40;36.40
18085;DHT22;9169;44.492;11.372;2022-08-21T09:26:23;31.50;36.30
18085;DHT22;9169;44.492;11.372;2022-08-21T09:28:51;31.50;36.30
18085;DHT22;9169;44.492;11.372;2022-08-21T09:31:21;31.70;36.40
18085;DHT22;9169;44.492;11.372;2022-08-21T09:33:48;31.80;36.30
18085;DHT22;9169;44.492;11.372;2022-08-21T09:36:23;32.10;36.30
18085;DHT22;9169;44.492;11.372;2022-08-21T09:38:52;32.80;36.40
18085;DHT22;9169;44.492;11.372;2022-08-21T09:41:25;34.20;36.00
18085;DHT22;9169;44.492;11.372;2022-08-21T09:43:53;36.00;34.80
18085;DHT22;9169;44.492;11.372;2022-08-21T09:46:22;37.40;33.00
18085;DHT22;9169;44.492;11.372;2022-08-21T09:48:50;38.30;31.90
18085;DHT22;9169;44.492;11.372;2022-08-21T09:51:18;39.10;31.50
18085;DHT22;9169;44.492;11.372;2022-08-21T09:53:48;40.10;31.00
18085;DHT22;9169;44.492;11.372;2022-08-21T09:56:19;41.20;30.50
18085;DHT22;9169;44.492;11.372;2022-08-21T09:59:12;42.10;29.90
18085;DHT22;9169;44.492;11.372;2022-08-21T10:01:41;43.00;29.40
18085;DHT22;9169;44.492;11.372;2022-08-21T10:04:09;43.40;29.40
18085;DHT22;9169;44.492;11.372;2022-08-21T10:06:36;44.10;29.20
18085;DHT22;9169;44.492;11.372;2022-08-21T10:09:05;44.80;28.70
18085;DHT22;9169;44.492;11.372;2022-08-21T10:11:33;45.10;28.50
18085;DHT22;9169;44.492;11.372;2022-08-21T10:14:01;45.70;28.60
18085;DHT22;9169;44.492;11.372;2022-08-21T10:16:31;46.50;28.30
18085;DHT22;9169;44.492;11.372;2022-08-21T10:19:02;46.90;27.70
18085;DHT22;9169;44.492;11.372;2022-08-21T10:21:34;47.30;27.80
18085;DHT22;9169;44.492;11.372;2022-08-21T10:24:07;47.60;26.70
18085;DHT22;9169;44.492;11.372;2022-08-21T10:26:39;47.60;27.10
18085;DHT22;9169;44.492;11.372;2022-08-21T10:29:13;47.60;26.90
18085;DHT22;9169;44.492;11.372;2022-08-21T10:31:45;47.90;27.50
18085;DHT22;9169;44.492;11.372;2022-08-21T10:34:16;48.20;26.90
18085;DHT22;9169;44.492;11.372;2022-08-21T10:36:51;48.30;25.20
18085;DHT22;9169;44.492;11.372;2022-08-21T10:39:21;48.10;26.80
18085;DHT22;9169;44.492;11.372;2022-08-21T10:41:58;48.50;26.90
18085;DHT22;9169;44.492;11.372;2022-08-21T10:44:29;49.00;26.70
18085;DHT22;9169;44.492;11.372;2022-08-21T10:46:58;49.30;26.90
18085;DHT22;9169;44.492;11.372;2022-08-21T10:49:28;49.70;26.50
18085;DHT22;9169;44.492;11.372;2022-08-21T10:52:02;49.80;25.80
18085;DHT22;9169;44.492;11.372;2022-08-21T10:54:35;49.70;25.80
18085;DHT22;9169;44.492;11.372;2022-08-21T10:57:07;49.80;26.50
18085;DHT22;9169;44.492;11.372;2022-08-21T10:59:38;50.30;26.00
18085;DHT22;9169;44.492;11.372;2022-08-21T11:02:09;50.30;25.70
18085;DHT22;9169;44.492;11.372;2022-08-21T11:04:40;50.60;25.80
18085;DHT22;9169;44.492;11.372;2022-08-21T11:07:10;50.60;25.00
18085;DHT22;9169;44.492;11.372;2022-08-21T11:09:45;50.20;25.20
18085;DHT22;9169;44.492;11.372;2022-08-21T11:12:17;50.30;24.70
18085;DHT22;9169;44.492;11.372;2022-08-21T11:14:47;50.60;25.50
18085;DHT22;9169;44.492;11.372;2022-08-21T11:17:16;50.80;24.80
18085;DHT22;9169;44.492;11.372;2022-08-21T11:19:45;50.60;25.00
18085;DHT22;9169;44.492;11.372;2022-08-21T11:22:15;50.40;24.90
18085;DHT22;9169;44.492;11.372;2022-08-21T11:24:46;50.20;25.10
18085;DHT22;9169;44.492;11.372;2022-08-21T11:27:17;50.40;25.50
18085;DHT22;9169;44.492;11.372;2022-08-21T11:29:47;50.80;25.80
18085;DHT22;9169;44.492;11.372;2022-08-21T11:32:24;51.30;25.40
18085;DHT22;9169;44.492;11.372;2022-08-21T11:34:57;51.50;25.30
18085;DHT22;9169;44.492;11.372;2022-08-21T11:37:33;51.60;25.20
18085;DHT22;9169;44.492;11.372;2022-08-21T11:40:05;51.80;25.40
18085;DHT22;9169;44.492;11.372;2022-08-21T11:42:36;52.30;25.30
18085;DHT22;9169;44.492;11.372;2022-08-21T11:45:10;52.60;25.50
18085;DHT22;9169;44.492;11.372;2022-08-21T11:47:45;53.00;25.40
18085;DHT22;9169;44.492;11.372;2022-08-21T11:50:13;53.50;25.30
18085;DHT22;9169;44.492;11.372;2022-08-21T11:52:41;53.70;24.90
18085;DHT22;9169;44.492;11.372;2022-08-21T11:55:11;53.80;25.00
18085;DHT22;9169;44.492;11.372;2022-08-21T11:57:40;53.90;24.20
18085;DHT22;9169;44.492;11.372;2022-08-21T12:00:15;53.90;23.90
18085;DHT22;9169;44.492;11.372;2022-08-21T12:02:44;53.80;24.70
18085;DHT22;9169;44.492;11.372;2022-08-21T12:05:22;54.00;24.80
18085;DHT22;9169;44.492;11.372;2022-08-21T12:07:59;54.20;24.80
18085;DHT22;9169;44.492;11.372;2022-08-21T12:10:31;54.20;24.40
18085;DHT22;9169;44.492;11.372;2022-08-21T12:13:05;54.20;24.50
18085;DHT22;9169;44.492;11.372;2022-08-21T12:15:33;54.40;24.10
18085;DHT22;9169;44.492;11.372;2022-08-21T12:18:02;54.40;24.40
18085;DHT22;9169;44.492;11.372;2022-08-21T12:20:34;54.40;24.00
18085;DHT22;9169;44.492;11.372;2022-08-21T12:23:05;54.50;24.10
18085;DHT22;9169;44.492;11.372;2022-08-21T12:25:41;54.30;22.60
18085;DHT22;9169;44.492;11.372;2022-08-21T12:28:09;53.90;24.10
18085;DHT22;9169;44.492;11.372;2022-08-21T12:30:38;53.90;23.90
18085;DHT22;9169;44.492;11.372;2022-08-21T12:33:17;53.90;23.30
18085;DHT22;9169;44.492;11.372;2022-08-21T12:35:45;53.70;23.00
18085;DHT22;9169;44.492;11.372;2022-08-21T12:38:15;53.50;23.00
18085;DHT22;9169;44.492;11.372;2022-08-21T12:40:46;53.50;23.40
18085;DHT22;9169;44.492;11.372;2022-08-21T12:43:15;53.20;23.60
18085;DHT22;9169;44.492;11.372;2022-08-21T12:45:45;53.10;23.60
18085;DHT22;9169;44.492;11.372;2022-08-21T12:48:14;52.90;23.40
18085;DHT22;9169;44.492;11.372;2022-08-21T12:50:45;52.90;24.80
18085;DHT22;9169;44.492;11.372;2022-08-21T12:53:15;53.00;23.50
18085;DHT22;9169;44.492;11.372;2022-08-21T12:55:48;53.20;24.40
18085;DHT22;9169;44.492;11.372;2022-08-21T12:58:18;53.50;23.30
18085;DHT22;9169;44.492;11.372;2022-08-21T13:00:47;53.40;22.60
18085;DHT22;9169;44.492;11.372;2022-08-21T13:03:15;53.30;23.60
18085;DHT22;9169;44.492;11.372;2022-08-21T13:05:42;53.40;23.70
18085;DHT22;9169;44.492;11.372;2022-08-21T13:08:10;53.30;22.90
18085;DHT22;9169;44.492;11.372;2022-08-21T13:10:38;52.80;22.50
18085;DHT22;9169;44.492;11.372;2022-08-21T13:13:12;52.60;23.30
18085;DHT22;9169;44.492;11.372;2022-08-21T13:15:41;52.90;24.30
18085;DHT22;9169;44.492;11.372;2022-08-21T13:18:08;53.20;23.60
18085;DHT22;9169;44.492;11.372;2022-08-21T13:20:35;53.00;23.30
18085;DHT22;9169;44.492;11.372;2022-08-21T13:23:05;53.10;24.10
18085;DHT22;9169;44.492;11.372;2022-08-21T13:25:34;53.20;24.00
18085;DHT22;9169;44.492;11.372;2022-08-21T13:28:04;53.40;23.30
18085;DHT22;9169;44.492;11.372;2022-08-21T13:30:32;53.30;23.50
18085;DHT22;9169;44.492;11.372;2022-08-21T13:33:00;53.20;22.90
18085;DHT22;9169;44.492;11.372;2022-08-21T13:35:28;53.00;23.40
18085;DHT22;9169;44.492;11.372;2022-08-21T13:37:56;53.00;23.40
18085;DHT22;9169;44.492;11.372;2022-08-21T13:40:26;52.80;23.30
18085;DHT22;9169;44.492;11.372;2022-08-21T13:42:54;52.70;23.80
18085;DHT22;9169;44.492;11.372;2022-08-21T13:45:23;52.60;22.60
18085;DHT22;9169;44.492;11.372;2022-08-21T13:47:51;52.50;23.80
18085;DHT22;9169;44.492;11.372;2022-08-21T13:50:20;52.20;22.80
18085;DHT22;9169;44.492;11.372;2022-08-21T13:52:49;51.90;23.60
18085;DHT22;9169;44.492;11.372;2022-08-21T13:55:16;51.90;23.90
18085;DHT22;9169;44.492;11.372;2022-08-21T13:57:43;51.90;23.90
18085;DHT22;9169;44.492;11.372;2022-08-21T14:00:11;51.70;23.60
18085;DHT22;9169;44.492;11.372;2022-08-21T14:02:39;51.30;23.70
18085;DHT22;9169;44.492;11.372;2022-08-21T14:05:13;51.20;24.10
18085;DHT22;9169;44.492;11.372;2022-08-21T14:07:41;51.60;24.80
18085;DHT22;9169;44.492;11.372;2022-08-21T14:10:11;51.90;25.00
18085;DHT22;9169;44.492;11.372;2022-08-21T14:12:40;52.10;24.70
18085;DHT22;9169;44.492;11.372;2022-08-21T14:15:08;52.20;24.50
18085;DHT22;9169;44.492;11.372;2022-08-21T14:17:36;52.20;23.80
18085;DHT22;9169;44.492;11.372;2022-08-21T14:20:03;51.70;24.00
18085;DHT22;9169;44.492;11.372;2022-08-21T14:22:36;50.80;24.20
18085;DHT22;9169;44.492;11.372;2022-08-21T14:25:04;50.00;24.90
18085;DHT22;9169;44.492;11.372;2022-08-21T14:27:32;49.10;24.30
18085;DHT22;9169;44.492;11.372;2022-08-21T14:30:01;47.90;24.10
18085;DHT22;9169;44.492;11.372;2022-08-21T14:32:29;46.90;24.20
18085;DHT22;9169;44.492;11.372;2022-08-21T14:35:01;46.00;25.40
18085;DHT22;9169;44.492;11.372;2022-08-21T14:37:27;45.40;26.00
18085;DHT22;9169;44.492;11.372;2022-08-21T14:39:56;44.80;26.00
18085;DHT22;9169;44.492;11.372;2022-08-21T14:42:22;44.20;26.40
18085;DHT22;9169;44.492;11.372;2022-08-21T14:44:49;43.80;26.50
18085;DHT22;9169;44.492;11.372;2022-08-21T14:47:17;43.30;26.60
18085;DHT22;9169;44.492;11.372;2022-08-21T14:49:43;42.70;27.00
18085;DHT22;9169;44.492;11.372;2022-08-21T14:52:10;42.50;27.00
18085;DHT22;9169;44.492;11.372;2022-08-21T14:54:37;42.20;27.30
18085;DHT22;9169;44.492;11.372;2022-08-21T14:57:06;42.00;27.60
18085;DHT22;9169;44.492;11.372;2022-08-21T14:59:34;41.80;27.80
18085;DHT22;9169;44.492;11.372;2022-08-21T15:02:01;41.50;27.60
18085;DHT22;9169;44.492;11.372;2022-08-21T15:04:29;41.30;27.80
18085;DHT22;9169;44.492;11.372;2022-08-21T15:06:56;41.10;27.80
18085;DHT22;9169;44.492;11.372;2022-08-21T15:09:22;41.00;28.50
18085;DHT22;9169;44.492;11.372;2022-08-21T15:11:53;40.70;28.10
18085;DHT22;9169;44.492;11.372;2022-08-21T15:14:24;40.60;28.20
18085;DHT22;9169;44.492;11.372;2022-08-21T15:16:51;40.40;28.30
18085;DHT22;9169;44.492;11.372;2022-08-21T15:19:18;40.30;28.80
18085;DHT22;9169;44.492;11.372;2022-08-21T15:21:45;40.20;28.50
18085;DHT22;9169;44.492;11.372;2022-08-21T15:24:12;40.20;28.70
18085;DHT22;9169;44.492;11.372;2022-08-21T15:26:39;40.00;28.70
18085;DHT22;9169;44.492;11.372;2022-08-21T15:29:06;39.90;28.60
18085;DHT22;9169;44.492;11.372;2022-08-21T15:31:35;39.70;28.70
18085;DHT22;9169;44.492;11.372;2022-08-21T15:34:02;39.60;28.80
18085;DHT22;9169;44.492;11.372;2022-08-21T15:36:28;39.50;28.80